• Join FlightAware (Why Join?)
  • Login
  • US Flag 
05:38AM EDT


 

Airport Tracker/Info


-or-


 

Live Flight TrackerFlight Track Log ✈ N983CA ✈ 27-Apr-2013 ✈ KPSP - KSFO

Flight Track Log - Related Links

Times and Time Zones

All times are in EDT time to prevent confusion due to time zone crossing. See the N983CA flight status page for this flight to view local times or setup timezone preferences in your user account.

Time Position Orientation Groundspeed Altitude Reporting Facility
EDT Latitude Longitude Course Direction KTS MPH feet Rate Location/Type
03:23PM 33.8500 -116.5333 342° North 191 220 1,300  Level Southern California TRACON
03:24PM 33.9000 -116.5833 320° Northwest 214 246 3,700 2,340 Climbing Southern California TRACON
03:25PM 33.9333 -116.5833 360° North 221 254 5,800 2,220 Climbing Southern California TRACON
03:26PM 34.0932 -116.5139 342° North  Level FlightAware Approximate
03:26PM 33.9583 -116.5631 34° Northeast 212 244 6,700  Level Los Angeles Center
03:27PM 34.1957 -116.5562 338° Northwest  Level FlightAware Approximate
03:27PM 34.0039 -116.5167 40° Northeast 213 245 9,000  Level Los Angeles Center
03:28PM 34.3009 -116.5935 351° North  Level FlightAware Approximate
03:28PM 34.0653 -116.5014 12° North 256 295 9,900  Level Los Angeles Center
03:29PM 34.4068 -116.6294 342° North  Level FlightAware Approximate
03:29PM 34.1375 -116.5328 340° North 283 326 12,000  Level Los Angeles Center
03:30PM 34.2156 -116.5647 341° North 292 336 14,200 1,560 Climbing Los Angeles Center
03:31PM 34.2703 -116.6775 300° West 345 397 15,300 1,200 Climbing Los Angeles Center
03:32PM 34.2992 -116.7983 286° West 371 427 16,800 1,200 Climbing Los Angeles Center
03:33PM 34.3311 -116.9194 288° West 377 434 17,900 1,200 Climbing Los Angeles Center
03:34PM 34.3647 -117.0422 288° West 382 440 19,400 1,260 Climbing Los Angeles Center
03:35PM 34.3975 -117.1661 288° West 385 443 20,500 1,020 Climbing Los Angeles Center
03:36PM 34.4308 -117.2906 288° West 389 448 21,600 960 Climbing Los Angeles Center
03:37PM 34.4628 -117.4219 286° West 406 467 22,600 960 Climbing Los Angeles Center
03:38PM 34.5042 -117.5764 288° West 402 463 23,600 840 Climbing Los Angeles Center
03:39PM 34.5381 -117.7047 288° West 399 459 24,400 720 Climbing Los Angeles Center
03:40PM 34.5728 -117.8369 288° West 406 467 25,100 600 Climbing Los Angeles Center
03:41PM 34.6058 -117.9708 287° West 412 474 25,700 420 Climbing Los Angeles Center
03:42PM 34.6503 -118.1008 293° West 423 487 26,000 120 Climbing Los Angeles Center
03:43PM 34.7172 -118.2228 304° West 436 502 26,000  Level Los Angeles Center
03:44PM 34.7833 -118.3461 303° West 438 504 26,000  Level Los Angeles Center
03:45PM 34.8625 -118.4892 304° West 439 505 26,000  Level Los Angeles Center
03:46PM 34.9342 -118.6222 303° West 439 505 26,000  Level Los Angeles Center
03:47PM 35.0000 -118.7478 303° West 442 509 26,000  Level Los Angeles Center
03:48PM 35.0681 -118.8728 304° West 443 510 26,000  Level Los Angeles Center
03:49PM 35.1333 -118.9978 303° West 440 506 26,000  Level Los Angeles Center
03:50PM 35.1944 -119.1292 300° West 450 518 26,000  Level Los Angeles Center
03:52PM 35.2594 -119.2894 296° West 440 506 26,000  Level Los Angeles Center
03:53PM 35.3125 -119.4217 296° West 436 502 26,000  Level Los Angeles Center
03:54PM 35.3564 -119.5292 297° West 438 504 26,000  Level Los Angeles Center
03:54PM 35.4097 -119.6608 296° West 441 507 26,000  Level Oakland Center
03:55PM 35.4644 -119.7953 297° West 443 510 26,000  Level Oakland Center
03:56PM 35.5178 -119.9294 296° West 442 509 26,000  Level Oakland Center
03:57PM 35.5719 -120.0628 297° West 442 509 26,000  Level Oakland Center
03:58PM 35.6256 -120.1972 296° West 444 511 26,000  Level Oakland Center
03:59PM 35.6747 -120.3217 296° West 413 475 26,000  Level Oakland Center
04:00PM 35.7258 -120.4536 296° West 364 419 26,000  Level Oakland Center
04:01PM 35.7669 -120.5608 295° West 351 404 26,000  Level Oakland Center
04:03PM 35.8100 -120.6703 296° West 358 412 26,000  Level Oakland Center
04:04PM 35.8533 -120.7825 296° West 363 418 26,000  Level Oakland Center
04:05PM 35.8961 -120.8936 295° West 360 414 26,000  Level Oakland Center
04:06PM 35.9381 -121.0036 295° West 356 410 26,000  Level Oakland Center
04:07PM 35.9908 -121.1056 303° West 360 414 26,000  Level Oakland Center
04:08PM 36.0647 -121.1833 320° Northwest 349 402 26,000  Level Oakland Center
04:09PM 36.1514 -121.2828 317° Northwest 353 406 26,000 -60 Level Oakland Center
04:10PM 36.2244 -121.3669 317° Northwest 358 412 25,900 -600 Descending Oakland Center
04:11PM 36.2992 -121.4489 319° Northwest 360 414 24,900 -1,020 Descending Oakland Center
04:12PM 36.3703 -121.5289 318° Northwest 346 398 23,900 -1,020 Descending Oakland Center
04:13PM 36.4381 -121.6122 315° West 344 396 22,900 -1,020 Descending Oakland Center
04:14PM 36.5064 -121.6917 317° Northwest 338 389 21,900 -1,020 Descending Oakland Center
04:15PM 36.5756 -121.7675 319° Northwest 332 382 20,900 -1,080 Descending Oakland Center
04:15PM 36.6167 -121.8167 316° Northwest 375 432 20,300 -840 Descending Northern Cal TRACON
04:16PM 36.6833 -121.9000 315° West 363 418 19,600 -1,200 Descending Northern Cal TRACON
04:17PM 36.7500 -121.9667 321° Northwest 311 358 18,100 -1,500 Descending Northern Cal TRACON
04:18PM 36.8333 -121.9833 351° North 314 361 16,800 -1,500 Descending Northern Cal TRACON
04:19PM 36.8794 -121.9986 345° North 308 354 15,700 -1,680 Descending Oakland Center
04:20PM 36.9603 -122.0200 348° North 297 342 14,100 -1,620 Descending Oakland Center
04:21PM 37.0436 -122.0431 348° North 306 352 12,400 -1,620 Descending Oakland Center
04:22PM 37.1244 -122.0633 349° North 297 342 10,800 -1,200 Descending Oakland Center
04:23PM 37.2033 -122.0825 349° North 288 331 10,000 -780 Descending Oakland Center
04:24PM 37.2525 -122.1392 317° Northwest 249 287 9,300 -1,080 Descending Oakland Center
04:25PM 37.2919 -122.2081 306° West 242 278 7,800 -1,140 Descending Oakland Center
04:26PM 37.3336 -122.2928 302° West 236 272 7,000 -600 Descending Oakland Center
04:27PM 37.3675 -122.3619 302° West 232 267 6,700 -540 Descending Oakland Center
04:28PM 37.4169 -122.3644 358° North 263 303 6,000 -360 Descending Oakland Center
04:29PM 37.4247 -122.2842 83° East 240 276 6,000 -300 Level Oakland Center
04:30PM 37.4322 -122.2025 83° East 236 272 5,500 -600 Descending Oakland Center
04:31PM 37.4633 -122.1419 57° Northeast 232 267 4,800 -840 Descending Oakland Center
04:32PM 37.5122 -122.1544 349° North 202 232 3,800 -1,080 Descending Oakland Center
04:33PM 37.5447 -122.2033 310° West 189 217 2,600 -1,200 Descending Oakland Center